createdAt,value
2022-08-03T00:00:34.566Z,55.18
2022-08-03T00:03:05.086Z,55.27
2022-08-03T00:05:33.896Z,55.24
2022-08-03T00:08:02.146Z,55.36
2022-08-03T00:10:30.671Z,55.37
2022-08-03T00:12:58.827Z,55.38
2022-08-03T00:15:27.066Z,55.49
2022-08-03T00:17:55.198Z,55.57
2022-08-03T00:20:24.136Z,55.61
2022-08-03T00:22:52.999Z,55.58
2022-08-03T00:25:20.947Z,55.75
2022-08-03T00:27:50.424Z,55.51
2022-08-03T00:30:18.993Z,55.63
2022-08-03T00:32:48.029Z,55.50
2022-08-03T00:35:36.610Z,55.68
2022-08-03T00:38:05.737Z,55.68
2022-08-03T00:40:34.334Z,55.73
2022-08-03T00:43:06.129Z,55.75
2022-08-03T00:45:37.052Z,55.58
2022-08-03T00:48:19.591Z,55.56
2022-08-03T00:50:55.990Z,55.30
2022-08-03T00:53:25.496Z,55.32
2022-08-03T00:55:53.743Z,55.32
2022-08-03T00:58:21.992Z,55.41
2022-08-03T01:00:50.615Z,55.53
2022-08-03T01:03:18.922Z,55.75
2022-08-03T01:05:56.574Z,55.63
2022-08-03T01:08:52.723Z,55.67
2022-08-03T01:11:35.502Z,55.64
2022-08-03T01:14:19.187Z,55.44
2022-08-03T01:17:07.334Z,55.34
2022-08-03T01:19:47.381Z,55.68
2022-08-03T01:22:33.275Z,55.87
2022-08-03T01:25:01.201Z,56.04
2022-08-03T01:27:45.455Z,56.03
2022-08-03T01:30:14.018Z,56.10
2022-08-03T01:32:58.669Z,56.05
2022-08-03T01:35:31.894Z,56.04
2022-08-03T01:38:07.140Z,56.39
2022-08-03T01:40:37.843Z,56.62
2022-08-03T01:43:08.437Z,56.81
2022-08-03T01:45:37.815Z,56.90
2022-08-03T01:48:07.961Z,57.12
2022-08-03T01:50:36.305Z,57.36
2022-08-03T01:53:05.624Z,57.32
2022-08-03T01:55:36.741Z,57.51
2022-08-03T01:58:07.984Z,57.46
2022-08-03T02:00:37.893Z,57.25
2022-08-03T02:03:07.417Z,57.40
2022-08-03T02:05:38.239Z,57.43
2022-08-03T02:08:09.140Z,57.41
2022-08-03T02:10:39.070Z,57.57
2022-08-03T02:13:09.073Z,57.81
2022-08-03T02:15:37.981Z,57.85
2022-08-03T02:18:08.984Z,57.99
2022-08-03T02:20:39.250Z,58.09
2022-08-03T02:23:07.499Z,58.11
2022-08-03T02:25:51.300Z,58.15
2022-08-03T02:28:26.765Z,58.12
2022-08-03T02:30:57.116Z,58.14
2022-08-03T02:33:33.386Z,58.17
2022-08-03T02:36:02.963Z,58.03
2022-08-03T02:38:37.252Z,58.09
2022-08-03T02:41:15.407Z,58.18
2022-08-03T02:44:05.869Z,58.18
2022-08-03T02:46:38.971Z,58.59
2022-08-03T02:49:40.789Z,58.61
2022-08-03T02:51:59.281Z,58.66
2022-08-03T02:54:29.177Z,58.85
2022-08-03T02:56:59.243Z,58.88
2022-08-03T02:59:30.034Z,58.97
2022-08-03T03:02:01.094Z,59.29
2022-08-03T03:04:33.272Z,59.47
2022-08-03T03:07:04.442Z,59.36
2022-08-03T03:09:40.393Z,59.37
2022-08-03T03:12:13.623Z,59.31
2022-08-03T03:14:42.242Z,59.44
2022-08-03T03:17:12.044Z,59.41
2022-08-03T03:19:41.459Z,59.36
2022-08-03T03:22:11.140Z,59.51
2022-08-03T03:24:41.162Z,59.49
2022-08-03T03:27:09.712Z,59.46
2022-08-03T03:29:39.587Z,59.50
2022-08-03T03:32:09.283Z,59.49
2022-08-03T03:34:37.870Z,59.43
2022-08-03T03:37:06.104Z,59.49
2022-08-03T03:39:34.370Z,59.49
2022-08-03T03:42:03.842Z,59.55
2022-08-03T03:44:31.928Z,59.43
2022-08-03T03:47:00.318Z,59.40
2022-08-03T03:49:28.444Z,59.43
2022-08-03T03:51:57.229Z,59.43
2022-08-03T03:54:28.199Z,59.41
2022-08-03T03:56:57.828Z,59.37
2022-08-03T03:59:26.408Z,59.41
2022-08-03T04:01:59.190Z,59.49
2022-08-03T04:04:45.727Z,59.39
2022-08-03T04:07:32.692Z,59.40
2022-08-03T04:10:20.967Z,59.51
2022-08-03T04:12:52.627Z,59.48
2022-08-03T04:15:23.109Z,59.48
2022-08-03T04:17:54.203Z,59.48
2022-08-03T04:20:24.264Z,59.47
2022-08-03T04:22:54.781Z,59.50
2022-08-03T04:25:26.303Z,59.45
2022-08-03T04:28:29.600Z,59.30
2022-08-03T04:30:50.774Z,59.05
2022-08-03T04:33:20.397Z,58.68
2022-08-03T04:36:02.202Z,58.43
2022-08-03T04:38:39.260Z,57.88
2022-08-03T04:41:08.972Z,57.46
2022-08-03T04:43:40.757Z,56.69
2022-08-03T04:46:10.570Z,56.14
2022-08-03T04:48:43.469Z,55.89
2022-08-03T04:51:13.935Z,55.15
2022-08-03T04:53:44.370Z,53.88
2022-08-03T04:56:12.427Z,53.63
2022-08-03T04:58:40.709Z,53.17
2022-08-03T05:01:08.744Z,52.69
2022-08-03T05:03:36.634Z,52.55
2022-08-03T05:06:11.233Z,52.19
2022-08-03T05:08:46.118Z,52.03
2022-08-03T05:11:16.606Z,51.75
2022-08-03T05:13:47.776Z,51.43
2022-08-03T05:16:16.380Z,51.12
2022-08-03T05:18:45.147Z,51.07
2022-08-03T05:21:17.209Z,50.52
2022-08-03T05:23:45.707Z,50.49
2022-08-03T05:26:14.140Z,50.51
2022-08-03T05:28:50.670Z,50.45
2022-08-03T05:31:19.919Z,50.44
2022-08-03T05:33:49.593Z,50.14
2022-08-03T05:36:17.705Z,49.77
2022-08-03T05:38:46.005Z,49.40
2022-08-03T05:41:22.400Z,49.54
2022-08-03T05:43:53.864Z,49.56
2022-08-03T05:46:22.343Z,49.45
2022-08-03T05:48:50.865Z,49.39
2022-08-03T05:51:19.129Z,49.43
2022-08-03T05:53:47.196Z,49.55
2022-08-03T05:56:16.518Z,49.37
2022-08-03T05:58:46.785Z,49.31
2022-08-03T06:01:16.031Z,49.08
2022-08-03T06:03:45.033Z,49.10
2022-08-03T06:06:13.040Z,48.93
2022-08-03T06:08:42.432Z,48.91
2022-08-03T06:11:10.586Z,48.50
2022-08-03T06:13:39.120Z,48.21
2022-08-03T06:16:07.614Z,48.13
2022-08-03T06:18:36.894Z,48.01
2022-08-03T06:21:15.540Z,47.53
2022-08-03T06:23:53.179Z,47.37
2022-08-03T06:26:25.661Z,46.48
2022-08-03T06:28:55.372Z,45.98
2022-08-03T06:31:33.078Z,46.18
2022-08-03T06:34:32.990Z,46.14
2022-08-03T06:36:58.619Z,46.03
2022-08-03T06:39:30.272Z,45.47
2022-08-03T06:41:58.517Z,45.80
2022-08-03T06:44:26.557Z,45.97
2022-08-03T06:46:54.926Z,46.18
2022-08-03T06:49:23.221Z,46.07
2022-08-03T06:52:04.887Z,46.00
2022-08-03T06:54:35.717Z,45.95
2022-08-03T06:57:04.904Z,45.79
2022-08-03T07:00:09.141Z,45.73
2022-08-03T07:02:21.416Z,45.91
2022-08-03T07:04:50.324Z,45.92
2022-08-03T07:07:19.601Z,45.82
2022-08-03T07:09:57.077Z,45.67
2022-08-03T07:12:27.721Z,44.70
2022-08-03T07:15:00.907Z,44.25
2022-08-03T07:17:31.409Z,43.72
2022-08-03T07:20:00.242Z,43.37
2022-08-03T07:22:28.755Z,42.29
2022-08-03T07:24:56.901Z,41.35
2022-08-03T07:27:27.099Z,41.11
2022-08-03T07:29:55.739Z,40.80
2022-08-03T07:32:24.434Z,40.67
2022-08-03T07:34:55.804Z,40.21
2022-08-03T07:37:30.307Z,39.97
2022-08-03T07:39:58.647Z,39.49
2022-08-03T07:42:28.176Z,39.32
2022-08-03T07:44:56.626Z,38.79
2022-08-03T07:47:35.223Z,38.38
2022-08-03T07:50:06.447Z,38.22
2022-08-03T07:52:53.480Z,37.06
2022-08-03T07:55:25.332Z,36.70
2022-08-03T07:58:05.048Z,36.62
2022-08-03T08:00:34.184Z,36.27
2022-08-03T08:03:02.735Z,35.80
2022-08-03T08:05:30.920Z,35.89
2022-08-03T08:07:58.842Z,36.05
2022-08-03T08:10:27.375Z,36.34
2022-08-03T08:12:56.260Z,36.86
2022-08-03T08:15:24.592Z,36.37
2022-08-03T08:17:55.552Z,35.79
2022-08-03T08:20:31.337Z,33.17
2022-08-03T08:23:02.819Z,31.95
2022-08-03T08:25:33.202Z,31.73
2022-08-03T08:28:29.062Z,31.43
2022-08-03T08:30:51.950Z,31.54
2022-08-03T08:33:22.940Z,31.12
2022-08-03T08:35:53.651Z,31.55
2022-08-03T08:38:23.351Z,30.34
2022-08-03T08:40:52.016Z,28.91
2022-08-03T08:43:20.097Z,26.98
2022-08-03T08:45:51.365Z,25.66
2022-08-03T08:48:24.735Z,25.55
2022-08-03T08:50:54.634Z,25.71
2022-08-03T08:53:27.637Z,25.74
2022-08-03T08:56:01.055Z,25.75
2022-08-03T08:58:44.746Z,25.64
2022-08-03T09:01:13.225Z,25.55
2022-08-03T09:03:42.419Z,25.51
2022-08-03T09:06:10.317Z,25.18
2022-08-03T09:08:38.568Z,25.82
2022-08-03T09:11:07.957Z,25.85
2022-08-03T09:13:36.370Z,25.39
2022-08-03T09:16:13.599Z,24.99
2022-08-03T09:18:43.715Z,25.01
2022-08-03T09:21:32.262Z,23.92
2022-08-03T09:24:06.340Z,23.15
2022-08-03T09:26:37.075Z,23.84
2022-08-03T09:29:14.531Z,23.86
2022-08-03T09:31:45.456Z,23.90
2022-08-03T09:34:17.229Z,23.85
2022-08-03T09:36:47.618Z,24.30
2022-08-03T09:39:40.218Z,24.44
2022-08-03T09:42:15.523Z,24.03
2022-08-03T09:44:47.151Z,23.71
2022-08-03T09:47:28.396Z,23.23
2022-08-03T09:50:02.388Z,23.36
2022-08-03T09:52:48.324Z,24.20
2022-08-03T09:56:05.184Z,25.07
2022-08-03T09:58:10.932Z,25.60
2022-08-03T10:01:05.853Z,25.23
2022-08-03T10:04:03.578Z,25.15
2022-08-03T10:06:29.034Z,25.53
2022-08-03T10:09:16.934Z,25.50
2022-08-03T10:11:47.089Z,25.35
2022-08-03T10:14:21.202Z,24.75
2022-08-03T10:16:50.423Z,24.03
2022-08-03T10:19:19.504Z,24.11
2022-08-03T10:21:56.050Z,24.33
2022-08-03T10:24:27.633Z,24.42
2022-08-03T10:27:04.996Z,24.59
2022-08-03T10:29:39.104Z,24.35
2022-08-03T10:32:19.485Z,23.90
2022-08-03T10:34:52.191Z,23.73
2022-08-03T10:37:32.646Z,23.98
2022-08-03T10:40:01.401Z,24.16
2022-08-03T10:42:31.604Z,24.09
2022-08-03T10:45:05.401Z,23.70
2022-08-03T10:47:35.809Z,23.00
2022-08-03T10:50:05.284Z,23.44
2022-08-03T10:52:39.536Z,23.61
2022-08-03T10:55:56.982Z,23.61
2022-08-03T10:58:57.130Z,22.86
2022-08-03T11:02:02.316Z,22.39
2022-08-03T11:04:30.711Z,21.96
2022-08-03T11:07:17.831Z,21.86
2022-08-03T11:09:48.708Z,20.97
2022-08-03T11:12:32.171Z,20.51
2022-08-03T11:15:04.618Z,21.14
2022-08-03T11:17:46.365Z,21.49
2022-08-03T11:20:54.756Z,21.48
2022-08-03T11:24:04.234Z,21.28
2022-08-03T11:26:33.143Z,20.72
2022-08-03T11:29:37.713Z,20.18
2022-08-03T11:32:06.261Z,20.23
2022-08-03T11:34:34.615Z,20.27
2022-08-03T11:37:22.142Z,20.29
2022-08-03T11:39:53.230Z,20.41
2022-08-03T11:42:27.776Z,20.32
2022-08-03T11:45:00.798Z,20.46
2022-08-03T11:47:30.156Z,20.01
2022-08-03T11:50:00.349Z,19.99
2022-08-03T11:52:36.129Z,20.16
2022-08-03T11:55:09.149Z,19.94
2022-08-03T11:59:15.277Z,20.06
2022-08-03T12:00:32.946Z,20.37
2022-08-03T12:03:09.856Z,19.81
2022-08-03T12:05:51.121Z,19.79
2022-08-03T12:08:26.880Z,19.45
2022-08-03T12:10:56.958Z,19.19
2022-08-03T12:14:36.754Z,19.16
2022-08-03T12:16:33.700Z,19.46
2022-08-03T12:19:07.008Z,19.52
2022-08-03T12:21:35.224Z,19.75
2022-08-03T12:24:05.427Z,19.73
2022-08-03T12:26:58.631Z,19.84
2022-08-03T12:29:27.929Z,20.25
2022-08-03T12:31:56.480Z,19.68
2022-08-03T12:34:24.609Z,19.37
2022-08-03T12:36:59.633Z,19.10
2022-08-03T12:39:30.844Z,18.88
2022-08-03T12:41:59.691Z,19.59
2022-08-03T12:44:32.878Z,20.00
2022-08-03T12:47:02.217Z,19.57
2022-08-03T12:49:45.816Z,19.46
2022-08-03T12:52:14.070Z,19.41
2022-08-03T12:54:42.560Z,19.28
2022-08-03T12:57:15.961Z,19.02
2022-08-03T12:59:52.614Z,18.93
2022-08-03T13:02:23.642Z,18.81
2022-08-03T13:04:55.262Z,18.95
2022-08-03T13:07:23.548Z,19.08
2022-08-03T13:09:54.007Z,18.94
2022-08-03T13:12:24.955Z,19.29
2022-08-03T13:14:57.044Z,19.26
2022-08-03T13:17:25.732Z,19.34
2022-08-03T13:19:54.692Z,19.32
2022-08-03T13:22:24.442Z,19.29
2022-08-03T13:24:56.739Z,19.32
2022-08-03T13:28:03.893Z,19.36
2022-08-03T13:30:14.267Z,19.38
2022-08-03T13:32:58.844Z,19.22
2022-08-03T13:35:27.355Z,19.27
2022-08-03T13:37:55.276Z,19.55
2022-08-03T13:40:23.687Z,19.67
2022-08-03T13:42:59.098Z,19.66
2022-08-03T13:45:27.912Z,19.58
2022-08-03T13:47:56.031Z,19.43
2022-08-03T13:50:24.073Z,19.54
2022-08-03T13:52:52.224Z,19.31
2022-08-03T13:55:20.099Z,19.19
2022-08-03T13:58:11.928Z,19.25
2022-08-03T14:00:36.868Z,19.38
2022-08-03T14:03:13.145Z,19.31
2022-08-03T14:05:43.322Z,19.66
2022-08-03T14:08:12.757Z,19.93
2022-08-03T14:10:43.687Z,19.85
2022-08-03T14:13:16.697Z,20.26
2022-08-03T14:15:51.125Z,19.86
2022-08-03T14:18:28.971Z,19.62
2022-08-03T14:21:06.912Z,19.80
2022-08-03T14:23:38.014Z,19.87
2022-08-03T14:26:10.468Z,20.06
2022-08-03T14:28:38.656Z,20.18
2022-08-03T14:31:08.306Z,20.29
2022-08-03T14:33:56.092Z,20.23
2022-08-03T14:36:24.314Z,20.08
2022-08-03T14:38:52.622Z,20.06
2022-08-03T14:41:20.634Z,20.59
2022-08-03T14:44:01.214Z,20.29
2022-08-03T14:46:32.118Z,20.01
2022-08-03T14:50:29.343Z,19.79
2022-08-03T14:51:53.696Z,20.03
2022-08-03T14:54:23.099Z,20.13
2022-08-03T14:56:51.791Z,20.41
2022-08-03T14:59:19.773Z,20.48
2022-08-03T15:02:02.999Z,20.44
2022-08-03T15:04:34.950Z,20.65
2022-08-03T15:07:03.902Z,20.75
2022-08-03T15:09:32.120Z,20.91
2022-08-03T15:12:00.596Z,20.94
2022-08-03T15:14:33.443Z,20.95
2022-08-03T15:17:03.636Z,20.96
2022-08-03T15:20:03.567Z,21.09
2022-08-03T15:22:20.741Z,21.14
2022-08-03T15:24:53.427Z,21.13
2022-08-03T15:27:21.613Z,21.19
2022-08-03T15:30:06.831Z,21.52
2022-08-03T15:32:38.250Z,21.22
2022-08-03T15:35:06.549Z,21.32
2022-08-03T15:37:34.776Z,21.38
2022-08-03T15:40:02.908Z,21.10
2022-08-03T15:42:33.411Z,21.12
2022-08-03T15:45:01.976Z,21.17
2022-08-03T15:47:30.064Z,21.18
2022-08-03T15:49:57.986Z,21.39
2022-08-03T15:52:26.343Z,21.31
2022-08-03T15:54:54.301Z,21.54
2022-08-03T15:57:22.830Z,21.65
2022-08-03T15:59:52.085Z,21.60
2022-08-03T16:02:20.744Z,22.03
2022-08-03T16:04:49.051Z,21.93
2022-08-03T16:07:36.916Z,22.16
2022-08-03T16:10:05.258Z,22.31
2022-08-03T16:12:33.740Z,22.57
2022-08-03T16:15:02.483Z,22.32
2022-08-03T16:17:30.749Z,22.45
2022-08-03T16:19:58.781Z,22.39
2022-08-03T16:22:28.826Z,22.33
2022-08-03T16:24:58.696Z,22.35
2022-08-03T16:27:58.161Z,22.59
2022-08-03T16:30:18.787Z,22.75
2022-08-03T16:32:47.405Z,22.93
2022-08-03T16:35:19.663Z,22.85
2022-08-03T16:37:54.550Z,23.09
2022-08-03T16:40:25.772Z,22.90
2022-08-03T16:42:53.858Z,22.89
2022-08-03T16:45:22.507Z,23.01
2022-08-03T16:48:01.566Z,23.05
2022-08-03T16:50:35.713Z,22.92
2022-08-03T16:53:09.144Z,23.03
2022-08-03T16:55:48.936Z,23.27
2022-08-03T16:58:42.689Z,23.45
2022-08-03T17:01:22.603Z,23.60
2022-08-03T17:04:01.561Z,23.54
2022-08-03T17:06:35.662Z,23.75
2022-08-03T17:09:09.939Z,23.78
2022-08-03T17:11:47.135Z,23.69
2022-08-03T17:14:28.553Z,24.04
2022-08-03T17:17:03.826Z,24.08
2022-08-03T17:19:35.189Z,24.23
2022-08-03T17:22:19.612Z,24.41
2022-08-03T17:24:52.308Z,24.46
2022-08-03T17:28:50.493Z,24.63
2022-08-03T17:30:15.905Z,25.08
2022-08-03T17:32:57.685Z,25.16
2022-08-03T17:35:36.559Z,25.19
2022-08-03T17:38:10.527Z,25.54
2022-08-03T17:40:50.291Z,25.67
2022-08-03T17:44:13.250Z,25.69
2022-08-03T17:46:19.771Z,25.91
2022-08-03T17:48:48.840Z,26.15
2022-08-03T17:51:30.813Z,26.43
2022-08-03T17:54:20.867Z,26.54
2022-08-03T17:57:22.128Z,26.60
2022-08-03T18:00:27.430Z,26.76
2022-08-03T18:03:21.368Z,27.00
2022-08-03T18:06:08.942Z,27.14
2022-08-03T18:09:04.708Z,27.40
2022-08-03T18:11:35.888Z,27.61
2022-08-03T18:14:23.940Z,27.69
2022-08-03T18:17:01.993Z,27.87
2022-08-03T18:20:01.317Z,28.06
2022-08-03T18:22:25.215Z,28.22
2022-08-03T18:24:55.942Z,28.42
2022-08-03T18:27:24.730Z,28.49
2022-08-03T18:30:13.129Z,28.89
2022-08-03T18:32:43.585Z,29.15
2022-08-03T18:35:53.105Z,29.49
2022-08-03T18:38:19.092Z,29.54
2022-08-03T18:40:49.638Z,29.68
2022-08-03T18:43:20.836Z,29.66
2022-08-03T18:46:22.802Z,29.79
2022-08-03T18:49:17.257Z,29.99
2022-08-03T18:51:47.142Z,30.03
2022-08-03T18:54:58.225Z,30.23
2022-08-03T18:57:13.319Z,30.33
2022-08-03T19:00:24.360Z,30.41
2022-08-03T19:03:09.560Z,30.66
2022-08-03T19:06:02.217Z,30.88
2022-08-03T19:09:07.368Z,31.06
2022-08-03T19:12:14.387Z,31.25
2022-08-03T19:14:42.662Z,31.45
2022-08-03T19:17:12.223Z,31.55
2022-08-03T19:19:48.096Z,31.52
2022-08-03T19:22:21.335Z,31.75
2022-08-03T19:24:53.248Z,31.81
2022-08-03T19:27:26.822Z,32.01
2022-08-03T19:30:01.241Z,32.32
2022-08-03T19:32:33.497Z,32.39
2022-08-03T19:35:03.785Z,32.47
2022-08-03T19:37:38.557Z,32.52
2022-08-03T19:40:10.996Z,32.93
2022-08-03T19:42:45.657Z,33.80
2022-08-03T19:45:21.245Z,34.26
2022-08-03T19:47:56.679Z,34.88
2022-08-03T19:50:26.899Z,35.26
2022-08-03T19:53:00.742Z,35.60
2022-08-03T19:55:29.932Z,35.70
2022-08-03T19:58:04.096Z,36.24
2022-08-03T20:00:36.974Z,36.42
2022-08-03T20:03:21.688Z,36.73
2022-08-03T20:05:52.211Z,37.12
2022-08-03T20:08:22.517Z,37.36
2022-08-03T20:10:51.382Z,37.47
2022-08-03T20:13:20.852Z,37.50
2022-08-03T20:15:48.925Z,37.68
2022-08-03T20:18:21.814Z,37.61
2022-08-03T20:20:52.576Z,37.37
2022-08-03T20:23:21.496Z,37.53
2022-08-03T20:25:58.252Z,37.54
2022-08-03T20:28:49.728Z,37.70
2022-08-03T20:31:23.793Z,37.86
2022-08-03T20:34:00.633Z,38.10
2022-08-03T20:36:28.529Z,38.34
2022-08-03T20:38:59.984Z,38.38
2022-08-03T20:41:28.476Z,38.67
2022-08-03T20:44:01.111Z,38.64
2022-08-03T20:46:38.521Z,38.89
2022-08-03T20:49:23.235Z,39.05
2022-08-03T20:51:53.634Z,39.09
2022-08-03T20:54:29.184Z,39.25
2022-08-03T20:57:00.138Z,39.35
2022-08-03T20:59:36.888Z,39.55
2022-08-03T21:02:19.658Z,39.70
2022-08-03T21:04:58.560Z,39.95
2022-08-03T21:08:04.139Z,40.05
2022-08-03T21:10:19.146Z,40.32
2022-08-03T21:13:17.013Z,40.57
2022-08-03T21:16:12.012Z,40.83
2022-08-03T21:18:52.086Z,41.03
2022-08-03T21:21:22.964Z,41.41
2022-08-03T21:23:53.877Z,41.52
2022-08-03T21:26:24.809Z,41.73
2022-08-03T21:28:56.749Z,41.96
2022-08-03T21:31:26.534Z,42.13
2022-08-03T21:34:02.108Z,42.18
2022-08-03T21:36:33.388Z,42.09
2022-08-03T21:39:02.757Z,42.17
2022-08-03T21:41:32.556Z,42.43
2022-08-03T21:44:01.306Z,42.36
2022-08-03T21:46:38.063Z,42.52
2022-08-03T21:49:51.814Z,42.61
2022-08-03T21:51:59.655Z,42.71
2022-08-03T21:54:30.467Z,42.79
2022-08-03T21:57:05.041Z,42.78
2022-08-03T21:59:37.197Z,42.88
2022-08-03T22:02:20.058Z,42.98
2022-08-03T22:04:56.233Z,43.10
2022-08-03T22:07:27.540Z,43.23
2022-08-03T22:09:56.578Z,43.43
2022-08-03T22:12:26.671Z,43.33
2022-08-03T22:15:01.409Z,43.26
2022-08-03T22:17:55.811Z,43.19
2022-08-03T22:20:21.903Z,43.14
2022-08-03T22:22:55.707Z,42.92
2022-08-03T22:25:29.323Z,42.82
2022-08-03T22:28:12.027Z,42.66
2022-08-03T22:30:41.964Z,42.56
2022-08-03T22:33:12.877Z,42.61
2022-08-03T22:35:47.736Z,42.51
2022-08-03T22:38:18.166Z,42.46
2022-08-03T22:40:47.922Z,42.27
2022-08-03T22:43:16.967Z,42.33
2022-08-03T22:46:08.835Z,42.43
2022-08-03T22:48:41.334Z,42.30
2022-08-03T22:51:10.879Z,42.35
2022-08-03T22:53:40.857Z,42.48
2022-08-03T22:56:09.104Z,42.37
2022-08-03T22:58:37.576Z,42.48
2022-08-03T23:01:11.800Z,42.64
2022-08-03T23:04:00.956Z,42.74
2022-08-03T23:06:40.856Z,42.88
2022-08-03T23:09:11.264Z,42.89
2022-08-03T23:11:45.468Z,42.84
2022-08-03T23:14:16.833Z,43.02
2022-08-03T23:16:47.142Z,43.02
2022-08-03T23:19:25.299Z,43.19
2022-08-03T23:22:02.596Z,43.16
2022-08-03T23:24:36.248Z,43.20
2022-08-03T23:27:07.337Z,43.61
2022-08-03T23:29:37.610Z,43.65
2022-08-03T23:32:06.372Z,44.11
2022-08-03T23:34:53.974Z,44.08
2022-08-03T23:37:24.657Z,44.18
2022-08-03T23:39:54.788Z,44.08
2022-08-03T23:42:23.744Z,44.57
2022-08-03T23:44:55.447Z,44.87
2022-08-03T23:47:24.797Z,45.01
2022-08-03T23:50:13.122Z,45.28
2022-08-03T23:52:53.188Z,45.43
2022-08-03T23:55:27.080Z,45.61
2022-08-03T23:58:12.700Z,45.79
